createdAt,value
2018-07-24T00:00:00.854Z,0.00
2018-07-24T00:01:00.793Z,0.00
2018-07-24T00:02:00.735Z,0.00
2018-07-24T00:03:00.677Z,0.00
2018-07-24T00:04:00.619Z,0.00
2018-07-24T00:05:00.556Z,0.00
2018-07-24T00:06:00.504Z,0.00
2018-07-24T00:07:00.444Z,0.00
2018-07-24T00:08:00.386Z,0.00
2018-07-24T00:09:00.330Z,0.00
2018-07-24T00:10:01.235Z,0.00
2018-07-24T00:11:00.238Z,0.00
2018-07-24T00:12:00.150Z,0.00
2018-07-24T00:13:00.093Z,0.00
2018-07-24T00:14:00.036Z,0.00
2018-07-24T00:14:59.977Z,0.00
2018-07-24T00:15:59.918Z,0.00
2018-07-24T00:16:59.859Z,0.00
2018-07-24T00:17:59.801Z,0.00
2018-07-24T00:18:59.741Z,0.00
2018-07-24T00:19:59.684Z,0.00
2018-07-24T00:20:59.624Z,0.00
2018-07-24T00:21:59.580Z,0.00
2018-07-24T00:22:59.509Z,0.00
2018-07-24T00:23:59.451Z,0.00
2018-07-24T00:24:59.392Z,0.00
2018-07-24T00:25:59.333Z,0.00
2018-07-24T00:26:59.274Z,0.00
2018-07-24T00:27:59.212Z,0.00
2018-07-24T00:28:59.156Z,0.00
2018-07-24T00:29:59.096Z,0.00
2018-07-24T00:30:59.036Z,0.00
2018-07-24T00:31:59.107Z,0.00
2018-07-24T00:32:58.925Z,0.00
2018-07-24T00:33:58.862Z,0.00
2018-07-24T00:34:58.804Z,0.00
2018-07-24T00:35:58.744Z,0.00
2018-07-24T00:36:58.686Z,0.00
2018-07-24T00:37:58.629Z,0.00
2018-07-24T00:38:58.568Z,0.00
2018-07-24T00:39:58.712Z,0.00
2018-07-24T00:40:58.514Z,0.00
2018-07-24T00:41:58.391Z,0.00
2018-07-24T00:42:58.335Z,0.00
2018-07-24T00:43:58.277Z,0.00
2018-07-24T00:44:58.217Z,0.00
2018-07-24T00:45:58.159Z,0.00
2018-07-24T00:46:58.098Z,0.00
2018-07-24T00:47:58.040Z,0.00
2018-07-24T00:48:57.984Z,0.00
2018-07-24T00:49:57.934Z,0.00
2018-07-24T00:50:57.865Z,0.00
2018-07-24T00:51:57.810Z,0.00
2018-07-24T00:52:57.770Z,0.00
2018-07-24T00:53:57.721Z,0.00
2018-07-24T00:54:57.651Z,0.00
2018-07-24T00:55:57.568Z,0.00
2018-07-24T00:56:57.509Z,0.00
2018-07-24T00:57:57.451Z,0.00
2018-07-24T00:58:57.393Z,0.00
2018-07-24T00:59:57.335Z,0.00
2018-07-24T01:00:57.275Z,0.00
2018-07-24T01:01:57.216Z,0.00
2018-07-24T01:02:57.157Z,0.00
2018-07-24T01:03:57.098Z,0.00
2018-07-24T01:04:57.038Z,0.00
2018-07-24T01:05:56.979Z,0.00
2018-07-24T01:06:56.922Z,0.00
2018-07-24T01:07:56.862Z,0.00
2018-07-24T01:08:56.802Z,0.00
2018-07-24T01:09:56.746Z,0.00
2018-07-24T01:10:56.684Z,0.00
2018-07-24T01:11:56.627Z,0.00
2018-07-24T01:12:56.565Z,0.00
2018-07-24T01:13:56.509Z,0.00
2018-07-24T01:14:56.457Z,0.00
2018-07-24T01:15:56.391Z,0.00
2018-07-24T01:16:56.333Z,0.00
2018-07-24T01:17:56.273Z,0.00
2018-07-24T01:18:56.217Z,0.00
2018-07-24T01:19:56.154Z,0.00
2018-07-24T01:20:56.093Z,0.00
2018-07-24T01:21:56.037Z,0.00
2018-07-24T01:22:55.977Z,0.00
2018-07-24T01:23:55.917Z,0.00
2018-07-24T01:24:55.860Z,0.00
2018-07-24T01:25:55.799Z,0.00
2018-07-24T01:26:55.742Z,0.00
2018-07-24T01:27:55.682Z,0.00
2018-07-24T01:28:55.621Z,0.00
2018-07-24T01:29:55.563Z,0.00
2018-07-24T01:30:55.504Z,0.00
2018-07-24T01:31:55.442Z,0.00
2018-07-24T01:32:55.382Z,0.00
2018-07-24T01:33:55.329Z,0.00
2018-07-24T01:34:55.266Z,0.00
2018-07-24T01:35:55.207Z,0.00
2018-07-24T01:36:55.154Z,0.00
2018-07-24T01:37:55.089Z,0.00
2018-07-24T01:38:55.030Z,0.00
2018-07-24T01:39:54.970Z,0.00
2018-07-24T01:40:54.910Z,0.00
2018-07-24T01:41:54.851Z,0.00
2018-07-24T01:42:54.797Z,0.00
2018-07-24T01:43:54.733Z,0.00
2018-07-24T01:44:54.674Z,0.00
2018-07-24T01:45:54.615Z,0.00
2018-07-24T01:46:54.553Z,0.00
2018-07-24T01:47:54.496Z,0.00
2018-07-24T01:48:54.434Z,0.00
2018-07-24T01:49:54.377Z,0.00
2018-07-24T01:50:54.319Z,0.00
2018-07-24T01:51:54.258Z,0.00
2018-07-24T01:52:54.199Z,0.00
2018-07-24T01:53:54.139Z,0.00
2018-07-24T01:54:54.081Z,0.00
2018-07-24T01:55:54.023Z,0.00
2018-07-24T01:56:53.964Z,0.00
2018-07-24T01:57:53.900Z,0.00
2018-07-24T01:58:53.841Z,0.00
2018-07-24T01:59:53.782Z,0.00
2018-07-24T02:00:53.723Z,0.00
2018-07-24T02:01:53.664Z,0.00
2018-07-24T02:02:53.607Z,0.00
2018-07-24T02:03:53.544Z,0.00
2018-07-24T02:04:53.491Z,0.00
2018-07-24T02:05:53.423Z,0.00
2018-07-24T02:06:53.367Z,0.00
2018-07-24T02:07:53.306Z,0.00
2018-07-24T02:08:53.246Z,0.00
2018-07-24T02:09:53.188Z,0.00
2018-07-24T02:10:53.128Z,0.00
2018-07-24T02:11:53.067Z,0.00
2018-07-24T02:12:53.009Z,0.00
2018-07-24T02:13:52.950Z,0.00
2018-07-24T02:14:52.889Z,0.00
2018-07-24T02:15:52.831Z,0.00
2018-07-24T02:16:52.771Z,0.00
2018-07-24T02:17:52.709Z,0.00
2018-07-24T02:18:52.652Z,0.00
2018-07-24T02:19:52.591Z,0.00
2018-07-24T02:20:52.531Z,0.00
2018-07-24T02:21:52.472Z,0.00
2018-07-24T02:22:52.411Z,0.00
2018-07-24T02:23:52.346Z,0.00
2018-07-24T02:24:52.296Z,0.00
2018-07-24T02:25:52.234Z,0.00
2018-07-24T02:26:52.173Z,0.00
2018-07-24T02:27:52.113Z,0.00
2018-07-24T02:28:52.054Z,0.00
2018-07-24T02:29:51.995Z,0.00
2018-07-24T02:30:51.934Z,0.00
2018-07-24T02:31:51.910Z,0.00
2018-07-24T02:32:51.815Z,0.00
2018-07-24T02:33:51.760Z,0.00
2018-07-24T02:34:51.695Z,0.00
2018-07-24T02:35:51.634Z,0.00
2018-07-24T02:36:51.576Z,0.00
2018-07-24T02:37:51.516Z,0.00
2018-07-24T02:38:51.456Z,0.00
2018-07-24T02:39:51.397Z,0.00
2018-07-24T02:40:51.340Z,0.00
2018-07-24T02:41:51.277Z,0.00
2018-07-24T02:42:51.216Z,0.00
2018-07-24T02:43:51.158Z,0.00
2018-07-24T02:44:51.097Z,0.00
2018-07-24T02:45:51.040Z,0.00
2018-07-24T02:46:50.984Z,0.00
2018-07-24T02:47:50.919Z,0.00
2018-07-24T02:48:50.858Z,0.00
2018-07-24T02:49:50.799Z,0.00
2018-07-24T02:50:50.739Z,0.00
2018-07-24T02:51:50.678Z,0.00
2018-07-24T02:52:50.618Z,0.00
2018-07-24T02:53:50.563Z,0.00
2018-07-24T02:54:50.498Z,0.00
2018-07-24T02:55:50.441Z,0.00
2018-07-24T02:56:50.381Z,0.00
2018-07-24T02:57:50.321Z,0.00
2018-07-24T02:58:50.265Z,0.00
2018-07-24T02:59:50.200Z,0.00
2018-07-24T03:00:50.141Z,0.00
2018-07-24T03:01:50.080Z,0.00
2018-07-24T03:02:50.021Z,0.00
2018-07-24T03:03:49.961Z,0.00
2018-07-24T03:04:49.900Z,0.00
2018-07-24T03:05:49.842Z,0.00
2018-07-24T03:06:49.783Z,0.00
2018-07-24T03:07:49.720Z,0.00
2018-07-24T03:08:49.664Z,0.00
2018-07-24T03:09:49.600Z,0.00
2018-07-24T03:10:49.541Z,4.00
2018-07-24T03:11:49.482Z,4.00
2018-07-24T03:12:49.422Z,0.00
2018-07-24T03:13:49.359Z,0.00
2018-07-24T03:14:49.300Z,4.00
2018-07-24T03:15:49.238Z,4.00
2018-07-24T03:16:49.181Z,4.00
2018-07-24T03:17:49.122Z,4.00
2018-07-24T03:18:49.063Z,4.00
2018-07-24T03:19:49.001Z,4.00
2018-07-24T03:20:48.941Z,4.00
2018-07-24T03:21:48.881Z,8.00
2018-07-24T03:22:48.823Z,8.00
2018-07-24T03:23:48.760Z,12.00
2018-07-24T03:24:48.702Z,12.00
2018-07-24T03:25:48.644Z,12.00
2018-07-24T03:26:48.583Z,12.00
2018-07-24T03:27:48.523Z,16.00
2018-07-24T03:28:48.461Z,20.00
2018-07-24T03:29:48.403Z,20.00
2018-07-24T03:30:48.342Z,24.00
2018-07-24T03:31:48.296Z,28.00
2018-07-24T03:32:48.220Z,24.00
2018-07-24T03:33:48.162Z,28.00
2018-07-24T03:34:48.104Z,32.00
2018-07-24T03:35:48.042Z,36.00
2018-07-24T03:36:47.981Z,40.00
2018-07-24T03:37:47.922Z,44.00
2018-07-24T03:38:47.864Z,48.00
2018-07-24T03:39:47.852Z,52.00
2018-07-24T03:40:47.742Z,56.00
2018-07-24T03:41:47.681Z,60.00
2018-07-24T03:42:47.621Z,68.00
2018-07-24T03:43:47.562Z,72.00
2018-07-24T03:44:47.501Z,76.00
2018-07-24T03:45:47.443Z,84.00
2018-07-24T03:46:47.382Z,88.00
2018-07-24T03:47:47.321Z,92.00
2018-07-24T03:48:47.264Z,104.00
2018-07-24T03:49:47.202Z,108.00
2018-07-24T03:50:47.143Z,116.00
2018-07-24T03:51:47.082Z,124.00
2018-07-24T03:52:47.022Z,136.00
2018-07-24T03:53:46.962Z,140.00
2018-07-24T03:54:46.904Z,148.00
2018-07-24T03:55:46.842Z,160.00
2018-07-24T03:56:46.782Z,168.00
2018-07-24T03:57:46.731Z,176.00
2018-07-24T03:58:46.664Z,192.00
2018-07-24T03:59:46.605Z,200.00
2018-07-24T04:00:46.604Z,212.00
2018-07-24T04:01:46.483Z,224.00
2018-07-24T04:02:46.423Z,232.00
2018-07-24T04:03:46.361Z,248.00
2018-07-24T04:04:46.303Z,260.00
2018-07-24T04:05:46.244Z,272.00
2018-07-24T04:06:46.183Z,280.00
2018-07-24T04:07:46.122Z,296.00
2018-07-24T04:08:46.060Z,312.00
2018-07-24T04:09:46.002Z,324.00
2018-07-24T04:10:45.944Z,340.00
2018-07-24T04:11:45.879Z,352.00
2018-07-24T04:12:45.822Z,372.00
2018-07-24T04:13:45.761Z,384.00
2018-07-24T04:14:45.702Z,400.00
2018-07-24T04:15:45.640Z,412.00
2018-07-24T04:16:45.582Z,428.00
2018-07-24T04:17:45.520Z,444.00
2018-07-24T04:18:45.464Z,464.00
2018-07-24T04:19:45.400Z,476.00
2018-07-24T04:20:45.341Z,496.00
2018-07-24T04:21:45.285Z,508.00
2018-07-24T04:22:45.221Z,528.00
2018-07-24T04:23:45.160Z,544.00
2018-07-24T04:24:45.103Z,564.00
2018-07-24T04:25:45.041Z,580.00
2018-07-24T04:26:44.981Z,596.00
2018-07-24T04:27:44.920Z,612.00
2018-07-24T04:28:44.861Z,628.00
2018-07-24T04:29:44.801Z,648.00
2018-07-24T04:30:44.762Z,664.00
2018-07-24T04:31:44.680Z,684.00
2018-07-24T04:32:44.622Z,700.00
2018-07-24T04:33:44.561Z,720.00
2018-07-24T04:34:44.505Z,736.00
2018-07-24T04:35:44.441Z,756.00
2018-07-24T04:36:44.380Z,776.00
2018-07-24T04:37:44.322Z,792.00
2018-07-24T04:38:44.263Z,808.00
2018-07-24T04:39:44.253Z,824.00
2018-07-24T04:40:44.141Z,844.00
2018-07-24T04:41:44.111Z,868.00
2018-07-24T04:42:44.022Z,888.00
2018-07-24T04:43:43.962Z,908.00
2018-07-24T04:44:43.901Z,928.00
2018-07-24T04:45:43.840Z,944.00
2018-07-24T04:46:43.781Z,960.00
2018-07-24T04:47:43.722Z,984.00
2018-07-24T04:48:43.661Z,996.00
2018-07-24T04:49:43.603Z,1016.00
2018-07-24T04:50:43.541Z,1036.00
2018-07-24T04:51:43.480Z,1056.00
2018-07-24T04:52:43.422Z,1076.00
2018-07-24T04:53:43.365Z,1092.00
2018-07-24T04:54:43.305Z,1116.00
2018-07-24T04:55:43.241Z,1136.00
2018-07-24T04:56:43.183Z,1152.00
2018-07-24T04:57:43.122Z,1176.00
2018-07-24T04:58:43.064Z,1196.00
2018-07-24T04:59:43.003Z,1216.00
2018-07-24T05:00:42.941Z,1236.00
2018-07-24T05:01:42.885Z,1256.00
2018-07-24T05:02:42.883Z,1276.00
2018-07-24T05:03:42.762Z,1296.00
2018-07-24T05:04:42.706Z,1308.00
2018-07-24T05:05:42.644Z,1332.00
2018-07-24T05:06:42.582Z,1348.00
2018-07-24T05:07:42.524Z,1372.00
2018-07-24T05:08:42.463Z,1388.00
2018-07-24T05:09:42.455Z,1404.00
2018-07-24T05:10:42.346Z,1428.00
2018-07-24T05:11:42.288Z,1444.00
2018-07-24T05:12:42.226Z,1468.00
2018-07-24T05:13:42.163Z,1484.00
2018-07-24T05:14:42.104Z,1500.00
2018-07-24T05:15:42.051Z,1512.00
2018-07-24T05:16:42.007Z,1532.00
2018-07-24T05:17:41.925Z,1548.00
2018-07-24T05:18:41.871Z,1560.00
2018-07-24T05:19:41.807Z,1576.00
2018-07-24T05:20:41.747Z,1596.00
2018-07-24T05:21:41.686Z,1612.00
2018-07-24T05:22:41.629Z,1628.00
2018-07-24T05:23:41.592Z,1648.00
2018-07-24T05:24:41.563Z,1668.00
2018-07-24T05:25:41.451Z,1684.00
2018-07-24T05:26:41.389Z,1704.00
2018-07-24T05:27:41.331Z,1716.00
2018-07-24T05:28:41.276Z,1732.00
2018-07-24T05:29:41.209Z,1740.00
2018-07-24T05:30:41.150Z,1756.00
2018-07-24T05:31:41.091Z,1772.00
2018-07-24T05:32:41.030Z,1792.00
2018-07-24T05:33:40.970Z,1808.00
2018-07-24T05:34:40.913Z,1824.00
2018-07-24T05:35:40.851Z,1848.00
2018-07-24T05:36:40.798Z,1864.00
2018-07-24T05:37:40.733Z,1884.00
2018-07-24T05:38:40.713Z,1912.00
2018-07-24T05:39:40.612Z,1924.00
2018-07-24T05:40:40.554Z,1940.00
2018-07-24T05:41:40.496Z,1952.00
2018-07-24T05:42:40.437Z,1964.00
2018-07-24T05:43:40.376Z,1984.00
2018-07-24T05:44:40.318Z,1996.00
2018-07-24T05:45:40.261Z,2008.00
2018-07-24T05:46:40.197Z,2024.00
2018-07-24T05:47:40.140Z,2040.00
2018-07-24T05:48:40.085Z,2060.00
2018-07-24T05:49:40.020Z,2088.00
2018-07-24T05:50:39.963Z,2128.00
2018-07-24T05:51:39.899Z,2148.00
2018-07-24T05:52:39.840Z,2168.00
2018-07-24T05:53:39.781Z,2192.00
2018-07-24T05:54:39.723Z,2212.00
2018-07-24T05:55:39.661Z,2228.00
2018-07-24T05:56:39.602Z,2248.00
2018-07-24T05:57:39.549Z,2248.00
2018-07-24T05:58:39.486Z,2268.00
2018-07-24T05:59:39.428Z,2284.00
2018-07-24T06:00:39.366Z,2288.00
2018-07-24T06:01:39.308Z,2312.00
2018-07-24T06:02:39.249Z,2328.00
2018-07-24T06:03:39.188Z,2344.00
2018-07-24T06:04:39.130Z,2364.00
2018-07-24T06:05:39.072Z,2372.00
2018-07-24T06:06:39.013Z,2392.00
2018-07-24T06:07:38.954Z,2396.00
2018-07-24T06:08:38.895Z,2412.00
2018-07-24T06:09:38.833Z,2428.00
2018-07-24T06:10:38.777Z,2444.00
2018-07-24T06:11:38.717Z,2456.00
2018-07-24T06:12:38.658Z,2476.00
2018-07-24T06:13:38.602Z,2496.00
2018-07-24T06:14:38.540Z,2508.00
2018-07-24T06:15:38.476Z,2524.00
2018-07-24T06:16:38.438Z,2536.00
2018-07-24T06:17:38.360Z,2548.00
2018-07-24T06:18:38.304Z,2556.00
2018-07-24T06:19:38.258Z,2568.00
2018-07-24T06:20:38.184Z,2588.00
2018-07-24T06:21:38.129Z,2608.00
2018-07-24T06:22:38.069Z,2620.00
2018-07-24T06:23:38.076Z,2632.00
2018-07-24T06:24:37.949Z,2644.00
2018-07-24T06:25:37.890Z,2660.00
2018-07-24T06:26:37.834Z,2668.00
2018-07-24T06:27:37.773Z,2680.00
2018-07-24T06:28:37.715Z,2688.00
2018-07-24T06:29:37.657Z,2704.00
2018-07-24T06:30:37.598Z,2716.00
2018-07-24T06:31:37.538Z,2732.00
2018-07-24T06:32:37.479Z,2740.00
2018-07-24T06:33:37.421Z,2756.00
2018-07-24T06:34:37.360Z,2776.00
2018-07-24T06:35:37.304Z,2784.00
2018-07-24T06:36:37.243Z,2804.00
2018-07-24T06:37:37.188Z,2812.00
2018-07-24T06:38:37.128Z,2820.00
2018-07-24T06:39:37.100Z,2832.00
2018-07-24T06:40:37.010Z,2848.00
2018-07-24T06:41:36.954Z,2864.00
2018-07-24T06:42:36.893Z,2860.00
2018-07-24T06:43:36.834Z,2876.00
2018-07-24T06:44:36.843Z,2892.00
2018-07-24T06:45:36.716Z,2900.00
2018-07-24T06:46:36.658Z,2912.00
2018-07-24T06:47:36.599Z,2928.00
2018-07-24T06:48:36.542Z,2948.00
2018-07-24T06:49:36.484Z,2968.00
2018-07-24T06:50:36.423Z,2976.00
2018-07-24T06:51:36.414Z,2996.00
2018-07-24T06:52:36.472Z,3004.00
2018-07-24T06:53:36.261Z,3020.00
2018-07-24T06:54:36.192Z,3032.00
2018-07-24T06:55:36.133Z,3044.00
2018-07-24T06:56:36.091Z,3056.00
2018-07-24T06:57:36.018Z,3072.00
2018-07-24T06:58:35.959Z,3088.00
2018-07-24T06:59:35.904Z,3100.00
2018-07-24T07:00:35.841Z,3112.00
2018-07-24T07:01:35.791Z,3124.00
2018-07-24T07:02:35.753Z,3136.00
2018-07-24T07:03:35.664Z,3152.00
2018-07-24T07:04:35.609Z,3160.00
2018-07-24T07:05:35.551Z,3172.00
2018-07-24T07:06:35.493Z,3176.00
2018-07-24T07:07:35.493Z,3192.00
2018-07-24T07:08:35.375Z,3208.00
2018-07-24T07:09:35.316Z,3216.00
2018-07-24T07:10:35.259Z,3208.00
2018-07-24T07:11:35.204Z,3232.00
2018-07-24T07:12:35.144Z,3244.00
2018-07-24T07:13:35.164Z,3256.00
2018-07-24T07:14:35.025Z,3256.00
2018-07-24T07:15:34.969Z,3264.00
2018-07-24T07:16:34.914Z,3276.00
2018-07-24T07:17:34.859Z,3292.00
2018-07-24T07:18:34.799Z,3304.00
2018-07-24T07:19:34.745Z,3320.00
2018-07-24T07:20:34.733Z,3344.00
2018-07-24T07:21:34.623Z,3364.00
2018-07-24T07:22:34.565Z,3364.00
2018-07-24T07:23:34.507Z,3372.00
2018-07-24T07:24:34.452Z,3392.00
2018-07-24T07:25:34.389Z,3400.00
2018-07-24T07:26:34.334Z,3408.00
2018-07-24T07:27:34.272Z,3420.00
2018-07-24T07:28:34.267Z,3440.00
2018-07-24T07:29:34.161Z,3456.00
2018-07-24T07:30:34.104Z,3464.00
2018-07-24T07:31:34.043Z,3488.00
2018-07-24T07:32:34.000Z,3496.00
2018-07-24T07:33:33.997Z,3516.00
2018-07-24T07:34:33.871Z,3516.00
2018-07-24T07:35:33.811Z,3520.00
2018-07-24T07:36:33.758Z,3548.00
2018-07-24T07:37:33.697Z,3556.00
2018-07-24T07:38:33.640Z,3556.00
2018-07-24T07:39:33.582Z,3564.00
2018-07-24T07:40:33.524Z,3556.00
2018-07-24T07:41:33.467Z,3572.00
2018-07-24T07:42:33.412Z,3576.00
2018-07-24T07:43:33.353Z,3596.00
2018-07-24T07:44:33.295Z,3624.00
2018-07-24T07:45:33.237Z,3604.00
2018-07-24T07:46:33.179Z,3636.00
2018-07-24T07:47:33.120Z,3620.00
2018-07-24T07:48:33.066Z,3636.00
2018-07-24T07:49:33.010Z,3668.00
2018-07-24T07:50:32.951Z,3668.00
2018-07-24T07:51:32.926Z,3680.00
2018-07-24T07:52:32.894Z,3708.00
2018-07-24T07:53:32.777Z,3700.00
2018-07-24T07:54:32.726Z,3704.00
2018-07-24T07:55:32.664Z,3728.00
2018-07-24T07:56:32.607Z,3752.00
2018-07-24T07:57:32.551Z,3732.00
2018-07-24T07:58:32.495Z,3752.00
2018-07-24T07:59:32.435Z,3760.00
2018-07-24T08:00:32.375Z,3764.00
2018-07-24T08:01:32.323Z,3780.00
2018-07-24T08:02:32.339Z,3784.00
2018-07-24T08:03:32.208Z,3784.00
2018-07-24T08:04:32.151Z,3792.00
2018-07-24T08:05:32.094Z,3812.00
2018-07-24T08:06:32.037Z,3832.00
2018-07-24T08:07:31.979Z,3840.00
2018-07-24T08:08:31.920Z,3844.00
2018-07-24T08:09:31.866Z,3816.00
2018-07-24T08:10:31.809Z,3784.00
2018-07-24T08:11:31.858Z,3824.00
2018-07-24T08:12:31.699Z,3900.00
2018-07-24T08:13:31.646Z,3876.00
2018-07-24T08:14:31.580Z,3812.00
2018-07-24T08:15:31.522Z,3852.00
2018-07-24T08:16:31.467Z,3760.00
2018-07-24T08:17:31.411Z,3832.00
2018-07-24T08:18:31.351Z,3884.00
2018-07-24T08:19:31.293Z,3872.00
2018-07-24T08:20:31.240Z,3864.00
2018-07-24T08:21:31.181Z,3880.00
2018-07-24T08:22:31.128Z,3844.00
2018-07-24T08:23:31.068Z,3812.00
2018-07-24T08:24:31.009Z,3832.00
2018-07-24T08:25:30.955Z,3900.00
2018-07-24T08:26:30.898Z,3900.00
2018-07-24T08:27:30.840Z,3912.00
2018-07-24T08:28:30.784Z,3908.00
2018-07-24T08:29:30.729Z,3952.00
2018-07-24T08:30:30.670Z,3948.00
2018-07-24T08:31:30.613Z,3964.00
2018-07-24T08:32:30.558Z,3944.00
2018-07-24T08:33:30.551Z,3932.00
2018-07-24T08:34:30.450Z,3928.00
2018-07-24T08:35:30.388Z,3960.00
2018-07-24T08:36:30.331Z,3976.00
2018-07-24T08:37:30.276Z,3992.00
2018-07-24T08:38:30.219Z,3980.00
2018-07-24T08:39:30.161Z,3988.00
2018-07-24T08:40:30.101Z,3960.00
2018-07-24T08:41:30.051Z,3988.00
2018-07-24T08:42:30.009Z,3956.00
2018-07-24T08:43:29.937Z,4052.00
2018-07-24T08:44:29.880Z,4132.00
2018-07-24T08:45:29.828Z,4116.00
2018-07-24T08:46:29.769Z,4124.00
2018-07-24T08:47:29.711Z,4116.00
2018-07-24T08:48:29.654Z,4148.00
2018-07-24T08:49:29.602Z,4096.00
2018-07-24T08:50:29.542Z,4132.00
2018-07-24T08:51:29.486Z,4140.00
2018-07-24T08:52:29.500Z,4172.00
2018-07-24T08:53:29.742Z,4128.00
2018-07-24T08:54:29.553Z,4152.00
2018-07-24T08:55:29.435Z,4188.00
2018-07-24T08:56:29.207Z,4192.00
2018-07-24T08:57:29.150Z,4264.00
2018-07-24T08:58:29.092Z,4288.00
2018-07-24T08:59:29.039Z,4316.00
2018-07-24T09:00:28.985Z,4304.00
2018-07-24T09:01:28.926Z,4348.00
2018-07-24T09:02:28.865Z,4356.00
2018-07-24T09:03:28.884Z,4324.00
2018-07-24T09:04:28.764Z,4308.00
2018-07-24T09:05:28.701Z,4356.00
2018-07-24T09:06:28.646Z,4320.00
2018-07-24T09:07:28.586Z,4336.00
2018-07-24T09:08:28.534Z,4328.00
2018-07-24T09:09:28.595Z,4356.00
2018-07-24T09:10:28.422Z,4368.00
2018-07-24T09:11:28.367Z,4360.00
2018-07-24T09:12:28.331Z,4344.00
2018-07-24T09:13:28.254Z,4324.00
2018-07-24T09:14:28.201Z,4376.00
2018-07-24T09:15:28.249Z,4356.00
2018-07-24T09:16:28.089Z,4372.00
2018-07-24T09:17:28.033Z,4352.00
2018-07-24T09:18:28.024Z,4400.00
2018-07-24T09:19:28.050Z,4416.00
2018-07-24T09:20:28.145Z,4412.00
2018-07-24T09:21:27.810Z,4376.00
2018-07-24T09:22:27.783Z,4376.00
2018-07-24T09:23:27.695Z,4404.00
2018-07-24T09:24:27.639Z,4452.00
2018-07-24T09:25:27.591Z,4428.00
2018-07-24T09:26:27.530Z,4412.00
2018-07-24T09:27:27.477Z,4444.00
2018-07-24T09:28:27.422Z,4464.00
2018-07-24T09:29:27.364Z,4524.00
2018-07-24T09:30:27.313Z,4544.00
2018-07-24T09:31:27.252Z,4512.00
2018-07-24T09:32:27.196Z,4528.00
2018-07-24T09:33:27.141Z,4564.00
2018-07-24T09:34:27.083Z,4632.00
2018-07-24T09:35:27.044Z,4688.00
2018-07-24T09:36:26.975Z,4816.00
2018-07-24T09:37:26.921Z,5020.00
2018-07-24T09:38:26.865Z,5476.00
2018-07-24T09:39:26.809Z,6460.00
2018-07-24T09:40:26.779Z,7480.00
2018-07-24T09:41:26.794Z,8320.00
2018-07-24T09:42:26.647Z,8708.00
2018-07-24T09:43:26.591Z,8956.00
2018-07-24T09:44:26.536Z,8916.00
2018-07-24T09:45:26.483Z,9016.00
2018-07-24T09:46:26.432Z,9040.00
2018-07-24T09:47:26.376Z,8816.00
2018-07-24T09:48:26.319Z,8896.00
2018-07-24T09:49:26.271Z,8812.00
2018-07-24T09:50:26.261Z,8788.00
2018-07-24T09:51:26.162Z,8828.00
2018-07-24T09:52:26.118Z,8768.00
2018-07-24T09:53:26.058Z,8716.00
2018-07-24T09:54:26.011Z,8892.00
2018-07-24T09:55:25.952Z,9072.00
2018-07-24T09:56:25.921Z,9224.00
2018-07-24T09:57:25.851Z,9212.00
2018-07-24T09:58:25.801Z,9236.00
2018-07-24T09:59:25.792Z,9360.00
2018-07-24T10:00:25.703Z,9624.00
2018-07-24T10:01:25.650Z,9832.00
2018-07-24T10:02:25.595Z,10232.00
2018-07-24T10:03:25.550Z,11084.00
2018-07-24T10:04:25.532Z,11632.00
2018-07-24T10:05:25.460Z,11884.00
2018-07-24T10:06:25.401Z,12932.00
2018-07-24T10:07:25.350Z,13552.00
2018-07-24T10:08:25.303Z,13144.00
2018-07-24T10:09:25.253Z,12000.00
2018-07-24T10:10:25.205Z,10944.00
2018-07-24T10:11:25.152Z,10312.00
2018-07-24T10:12:25.113Z,9744.00
2018-07-24T10:13:25.149Z,9572.00
2018-07-24T10:14:25.010Z,9416.00
2018-07-24T10:15:24.960Z,9144.00
2018-07-24T10:16:24.919Z,8976.00
2018-07-24T10:17:24.866Z,8752.00
2018-07-24T10:18:24.818Z,8616.00
2018-07-24T10:19:24.776Z,8664.00
2018-07-24T10:20:24.720Z,8644.00
2018-07-24T10:21:24.672Z,8572.00
2018-07-24T10:22:24.705Z,8356.00
2018-07-24T10:23:24.574Z,8156.00
2018-07-24T10:24:24.560Z,7900.00
2018-07-24T10:25:24.479Z,7848.00
2018-07-24T10:26:24.432Z,7848.00
2018-07-24T10:27:24.383Z,7732.00
2018-07-24T10:28:24.335Z,7524.00
2018-07-24T10:29:24.294Z,7320.00
2018-07-24T10:30:24.321Z,7092.00
2018-07-24T10:31:24.189Z,6932.00
2018-07-24T10:32:24.143Z,6780.00
2018-07-24T10:33:24.091Z,6664.00
2018-07-24T10:34:24.050Z,6508.00
2018-07-24T10:35:23.995Z,6432.00
2018-07-24T10:36:23.967Z,6408.00
2018-07-24T10:37:23.902Z,6432.00
2018-07-24T10:38:23.853Z,6336.00
2018-07-24T10:39:23.808Z,6188.00
2018-07-24T10:40:23.757Z,6192.00
2018-07-24T10:41:23.707Z,6112.00
2018-07-24T10:42:23.656Z,6108.00
2018-07-24T10:43:23.610Z,6064.00
2018-07-24T10:44:23.560Z,5956.00
2018-07-24T10:45:23.514Z,5840.00
2018-07-24T10:46:23.467Z,5812.00
2018-07-24T10:47:23.418Z,5780.00
2018-07-24T10:48:23.370Z,5748.00
2018-07-24T10:49:23.363Z,5696.00
2018-07-24T10:50:23.276Z,5740.00
2018-07-24T10:51:23.223Z,5796.00
2018-07-24T10:52:23.174Z,5644.00
2018-07-24T10:53:23.128Z,5632.00
2018-07-24T10:54:23.078Z,5628.00
2018-07-24T10:55:23.043Z,5684.00
2018-07-24T10:56:22.983Z,5636.00
2018-07-24T10:57:22.933Z,5584.00
2018-07-24T10:58:22.888Z,5536.00
2018-07-24T10:59:22.836Z,5488.00
2018-07-24T11:00:22.792Z,5456.00
2018-07-24T11:01:22.739Z,5364.00
2018-07-24T11:02:22.690Z,5344.00
2018-07-24T11:03:22.640Z,5380.00
2018-07-24T11:04:22.593Z,5312.00
2018-07-24T11:05:22.590Z,5216.00
2018-07-24T11:06:22.496Z,5148.00
2018-07-24T11:07:22.445Z,5112.00
2018-07-24T11:08:22.399Z,5020.00
2018-07-24T11:09:22.346Z,4968.00
2018-07-24T11:10:22.296Z,4864.00
2018-07-24T11:11:22.248Z,4680.00
2018-07-24T11:12:22.199Z,4776.00
2018-07-24T11:13:22.149Z,4704.00
2018-07-24T11:14:22.098Z,4640.00
2018-07-24T11:15:22.049Z,4636.00
2018-07-24T11:16:21.998Z,4528.00
2018-07-24T11:17:21.951Z,4196.00
2018-07-24T11:18:21.897Z,4228.00
2018-07-24T11:19:21.848Z,4228.00
2018-07-24T11:20:21.796Z,4060.00
2018-07-24T11:21:21.747Z,1920.00
2018-07-24T11:22:21.743Z,3368.00
2018-07-24T11:23:21.690Z,2892.00
2018-07-24T11:24:21.595Z,3472.00
2018-07-24T11:25:21.541Z,3504.00
2018-07-24T11:26:21.492Z,3492.00
2018-07-24T11:27:21.494Z,3480.00
2018-07-24T11:28:21.425Z,3436.00
2018-07-24T11:29:21.336Z,3412.00
2018-07-24T11:30:21.283Z,3408.00
2018-07-24T11:31:21.234Z,3444.00
2018-07-24T11:32:21.178Z,3412.00
2018-07-24T11:33:21.242Z,3440.00
2018-07-24T11:34:21.076Z,3448.00
2018-07-24T11:35:21.038Z,3444.00
2018-07-24T11:36:21.064Z,3460.00
2018-07-24T11:37:20.915Z,3500.00
2018-07-24T11:38:20.862Z,3464.00
2018-07-24T11:39:20.807Z,3440.00
2018-07-24T11:40:20.763Z,3424.00
2018-07-24T11:41:20.703Z,3376.00
2018-07-24T11:42:20.670Z,3340.00
2018-07-24T11:43:20.595Z,3340.00
2018-07-24T11:44:20.542Z,3328.00
2018-07-24T11:45:20.490Z,3272.00
2018-07-24T11:46:20.436Z,3140.00
2018-07-24T11:47:20.380Z,3044.00
2018-07-24T11:48:20.328Z,2880.00
2018-07-24T11:49:20.275Z,2700.00
2018-07-24T11:50:20.221Z,3144.00
2018-07-24T11:51:20.167Z,3108.00
2018-07-24T11:52:20.113Z,3100.00
2018-07-24T11:53:20.059Z,3080.00
2018-07-24T11:54:20.007Z,3064.00
2018-07-24T11:55:19.952Z,3016.00
2018-07-24T11:56:19.898Z,3000.00
2018-07-24T11:57:19.843Z,2972.00
2018-07-24T11:58:19.791Z,2956.00
2018-07-24T11:59:19.732Z,2924.00
2018-07-24T12:00:19.684Z,2928.00
2018-07-24T12:01:19.625Z,2872.00
2018-07-24T12:02:19.572Z,2828.00
2018-07-24T12:03:19.517Z,2940.00
2018-07-24T12:04:19.464Z,3092.00
2018-07-24T12:05:19.412Z,3128.00
2018-07-24T12:06:19.354Z,3108.00
2018-07-24T12:07:19.299Z,3152.00
2018-07-24T12:08:19.246Z,3196.00
2018-07-24T12:09:19.193Z,3144.00
2018-07-24T12:10:19.136Z,3384.00
2018-07-24T12:11:19.086Z,3284.00
2018-07-24T12:12:19.027Z,3064.00
2018-07-24T12:13:18.972Z,2552.00
2018-07-24T12:14:18.917Z,3216.00
2018-07-24T12:15:18.866Z,3260.00
2018-07-24T12:16:18.810Z,3132.00
2018-07-24T12:17:18.755Z,2064.00
2018-07-24T12:18:18.701Z,2804.00
2018-07-24T12:19:18.641Z,3424.00
2018-07-24T12:20:18.591Z,3416.00
2018-07-24T12:21:18.536Z,2924.00
2018-07-24T12:22:18.480Z,2184.00
2018-07-24T12:23:18.430Z,3272.00
2018-07-24T12:24:18.378Z,1880.00
2018-07-24T12:25:18.328Z,1752.00
2018-07-24T12:26:18.310Z,1632.00